sensor_id;sensor_type;location;lat;lon;timestamp;pressure;altitude;pressure_sealevel;temperature;humidity
16595;BME280;8410;52.532;13.336;2023-04-05T00:01:27;102060.84;;;5.15;61.00
16595;BME280;8410;52.532;13.336;2023-04-05T00:03:58;102054.94;;;5.16;60.94
16595;BME280;8410;52.532;13.336;2023-04-05T00:06:29;102053.19;;;5.15;60.92
16595;BME280;8410;52.532;13.336;2023-04-05T00:08:57;102051.00;;;4.91;60.51
16595;BME280;8410;52.532;13.336;2023-04-05T00:11:25;102050.41;;;4.95;60.36
16595;BME280;8410;52.532;13.336;2023-04-05T00:13:52;102054.81;;;4.83;60.52
16595;BME280;8410;52.532;13.336;2023-04-05T00:16:21;102052.44;;;4.86;60.64
16595;BME280;8410;52.532;13.336;2023-04-05T00:18:49;102049.88;;;4.86;60.20
16595;BME280;8410;52.532;13.336;2023-04-05T00:21:18;102046.19;;;4.81;61.00
16595;BME280;8410;52.532;13.336;2023-04-05T00:23:47;102054.81;;;4.83;60.94
16595;BME280;8410;52.532;13.336;2023-04-05T00:26:16;102053.75;;;4.94;61.30
16595;BME280;8410;52.532;13.336;2023-04-05T00:28:45;102047.59;;;4.91;60.55
16595;BME280;8410;52.532;13.336;2023-04-05T00:31:13;102053.22;;;4.85;60.97
16595;BME280;8410;52.532;13.336;2023-04-05T00:33:40;102056.03;;;4.75;61.37
16595;BME280;8410;52.532;13.336;2023-04-05T00:36:09;102053.16;;;4.69;61.05
16595;BME280;8410;52.532;13.336;2023-04-05T00:38:38;102051.13;;;4.63;60.75
16595;BME280;8410;52.532;13.336;2023-04-05T00:41:07;102050.44;;;4.66;61.18
16595;BME280;8410;52.532;13.336;2023-04-05T00:43:34;102049.16;;;4.89;61.00
16595;BME280;8410;52.532;13.336;2023-04-05T00:46:03;102051.19;;;4.64;61.14
16595;BME280;8410;52.532;13.336;2023-04-05T00:48:31;102046.00;;;4.78;60.97
16595;BME280;8410;52.532;13.336;2023-04-05T00:50:59;102048.31;;;4.73;61.14
16595;BME280;8410;52.532;13.336;2023-04-05T00:53:27;102042.84;;;4.67;60.63
16595;BME280;8410;52.532;13.336;2023-04-05T00:55:56;102045.50;;;4.39;61.78
16595;BME280;8410;52.532;13.336;2023-04-05T00:58:24;102042.69;;;4.49;61.06
16595;BME280;8410;52.532;13.336;2023-04-05T01:00:59;102042.44;;;4.16;61.48
16595;BME280;8410;52.532;13.336;2023-04-05T01:03:33;102033.00;;;4.58;60.92
16595;BME280;8410;52.532;13.336;2023-04-05T01:06:09;102034.41;;;4.53;60.26
16595;BME280;8410;52.532;13.336;2023-04-05T01:08:48;102037.16;;;4.41;60.67
16595;BME280;8410;52.532;13.336;2023-04-05T01:11:20;102038.25;;;4.32;61.49
16595;BME280;8410;52.532;13.336;2023-04-05T01:13:48;102046.34;;;4.25;61.39
16595;BME280;8410;52.532;13.336;2023-04-05T01:16:15;102045.47;;;4.24;62.52
16595;BME280;8410;52.532;13.336;2023-04-05T01:18:43;102046.34;;;4.25;62.11
16595;BME280;8410;52.532;13.336;2023-04-05T01:21:31;102046.84;;;4.04;62.11
16595;BME280;8410;52.532;13.336;2023-04-05T01:24:15;102040.53;;;4.27;62.09
16595;BME280;8410;52.532;13.336;2023-04-05T01:26:56;102047.25;;;4.25;62.22
16595;BME280;8410;52.532;13.336;2023-04-05T01:29:46;102038.78;;;4.41;62.30
16595;BME280;8410;52.532;13.336;2023-04-05T01:32:21;102035.63;;;4.45;62.28
16595;BME280;8410;52.532;13.336;2023-04-05T01:34:54;102031.78;;;4.37;62.30
16595;BME280;8410;52.532;13.336;2023-04-05T01:37:26;102031.84;;;4.24;62.15
16595;BME280;8410;52.532;13.336;2023-04-05T01:39:56;102033.34;;;4.20;62.54
16595;BME280;8410;52.532;13.336;2023-04-05T01:42:25;102034.22;;;4.35;62.80
16595;BME280;8410;52.532;13.336;2023-04-05T01:44:55;102032.31;;;4.61;62.56
16595;BME280;8410;52.532;13.336;2023-04-05T01:47:23;102036.06;;;4.38;62.67
16595;BME280;8410;52.532;13.336;2023-04-05T01:49:51;102030.28;;;4.26;62.54
16595;BME280;8410;52.532;13.336;2023-04-05T01:52:18;102031.41;;;4.31;63.26
16595;BME280;8410;52.532;13.336;2023-04-05T01:54:46;102031.94;;;4.40;62.95
16595;BME280;8410;52.532;13.336;2023-04-05T01:57:13;102026.75;;;4.24;63.88
16595;BME280;8410;52.532;13.336;2023-04-05T01:59:41;102028.84;;;4.16;64.57
16595;BME280;8410;52.532;13.336;2023-04-05T02:02:10;102017.88;;;4.32;64.04
16595;BME280;8410;52.532;13.336;2023-04-05T02:04:38;102020.16;;;4.42;64.65
16595;BME280;8410;52.532;13.336;2023-04-05T02:07:05;102022.47;;;4.52;64.87
16595;BME280;8410;52.532;13.336;2023-04-05T02:09:33;102013.66;;;4.32;65.11
16595;BME280;8410;52.532;13.336;2023-04-05T02:12:00;102013.03;;;4.22;64.54
16595;BME280;8410;52.532;13.336;2023-04-05T02:14:28;102023.75;;;4.16;65.27
16595;BME280;8410;52.532;13.336;2023-04-05T02:16:55;102020.00;;;4.39;65.05
16595;BME280;8410;52.532;13.336;2023-04-05T02:19:25;102021.94;;;4.28;64.55
16595;BME280;8410;52.532;13.336;2023-04-05T02:21:55;102021.53;;;4.07;65.45
16595;BME280;8410;52.532;13.336;2023-04-05T02:24:22;102015.16;;;4.29;64.90
16595;BME280;8410;52.532;13.336;2023-04-05T02:26:49;102009.69;;;4.23;64.67
16595;BME280;8410;52.532;13.336;2023-04-05T02:29:17;102011.38;;;4.37;64.54
16595;BME280;8410;52.532;13.336;2023-04-05T02:31:44;102007.50;;;4.29;64.80
16595;BME280;8410;52.532;13.336;2023-04-05T02:34:12;102004.44;;;4.49;64.29
16595;BME280;8410;52.532;13.336;2023-04-05T02:36:41;101999.78;;;4.42;64.19
16595;BME280;8410;52.532;13.336;2023-04-05T02:39:09;101998.72;;;4.53;63.79
16595;BME280;8410;52.532;13.336;2023-04-05T02:41:36;101997.47;;;4.61;62.74
16595;BME280;8410;52.532;13.336;2023-04-05T02:44:04;101992.72;;;4.68;62.88
16595;BME280;8410;52.532;13.336;2023-04-05T02:46:31;101988.41;;;4.67;61.72
16595;BME280;8410;52.532;13.336;2023-04-05T02:48:59;101989.47;;;4.55;62.86
16595;BME280;8410;52.532;13.336;2023-04-05T02:51:26;101996.75;;;4.19;62.53
16595;BME280;8410;52.532;13.336;2023-04-05T02:53:55;102002.69;;;4.33;63.48
16595;BME280;8410;52.532;13.336;2023-04-05T02:56:23;101995.56;;;4.28;62.85
16595;BME280;8410;52.532;13.336;2023-04-05T02:58:50;101994.84;;;4.45;62.64
16595;BME280;8410;52.532;13.336;2023-04-05T03:01:18;101988.69;;;4.56;62.10
16595;BME280;8410;52.532;13.336;2023-04-05T03:03:45;101990.78;;;4.63;62.13
16595;BME280;8410;52.532;13.336;2023-04-05T03:06:13;101983.66;;;4.43;63.40
16595;BME280;8410;52.532;13.336;2023-04-05T03:08:41;101978.47;;;4.71;62.25
16595;BME280;8410;52.532;13.336;2023-04-05T03:11:12;101979.88;;;4.66;62.67
16595;BME280;8410;52.532;13.336;2023-04-05T03:13:40;101973.22;;;4.53;62.84
16595;BME280;8410;52.532;13.336;2023-04-05T03:16:07;101966.97;;;4.94;61.86
16595;BME280;8410;52.532;13.336;2023-04-05T03:18:35;101971.25;;;4.79;62.63
16595;BME280;8410;52.532;13.336;2023-04-05T03:21:02;101965.88;;;4.74;62.53
16595;BME280;8410;52.532;13.336;2023-04-05T03:23:31;101970.22;;;4.60;63.26
16595;BME280;8410;52.532;13.336;2023-04-05T03:25:59;101967.78;;;4.47;63.27
16595;BME280;8410;52.532;13.336;2023-04-05T03:28:30;101970.50;;;4.96;62.58
16595;BME280;8410;52.532;13.336;2023-04-05T03:30:58;101967.16;;;4.97;62.17
16595;BME280;8410;52.532;13.336;2023-04-05T03:33:25;101965.00;;;5.05;62.45
16595;BME280;8410;52.532;13.336;2023-04-05T03:35:53;101960.84;;;4.91;62.07
16595;BME280;8410;52.532;13.336;2023-04-05T03:38:20;101963.66;;;4.80;63.30
16595;BME280;8410;52.532;13.336;2023-04-05T03:40:48;101964.75;;;4.69;63.57
16595;BME280;8410;52.532;13.336;2023-04-05T03:43:15;101965.72;;;5.02;62.72
16595;BME280;8410;52.532;13.336;2023-04-05T03:45:44;101961.81;;;5.24;62.41
16595;BME280;8410;52.532;13.336;2023-04-05T03:48:12;101966.25;;;5.12;62.03
16595;BME280;8410;52.532;13.336;2023-04-05T03:50:39;101966.25;;;4.97;62.30
16595;BME280;8410;52.532;13.336;2023-04-05T03:53:07;101968.63;;;5.08;62.80
16595;BME280;8410;52.532;13.336;2023-04-05T03:55:34;101963.59;;;4.79;62.96
16595;BME280;8410;52.532;13.336;2023-04-05T03:58:02;101971.72;;;4.27;64.14
16595;BME280;8410;52.532;13.336;2023-04-05T04:00:29;101962.50;;;4.90;63.84
16595;BME280;8410;52.532;13.336;2023-04-05T04:02:58;101966.53;;;4.40;64.26
16595;BME280;8410;52.532;13.336;2023-04-05T04:05:26;101963.34;;;4.00;66.12
16595;BME280;8410;52.532;13.336;2023-04-05T04:07:54;101961.28;;;4.23;66.07
16595;BME280;8410;52.532;13.336;2023-04-05T04:10:21;101957.38;;;4.59;64.59
16595;BME280;8410;52.532;13.336;2023-04-05T04:12:49;101966.00;;;4.31;65.90
16595;BME280;8410;52.532;13.336;2023-04-05T04:15:16;101965.28;;;4.19;66.28
16595;BME280;8410;52.532;13.336;2023-04-05T04:17:44;101963.03;;;4.24;66.78
16595;BME280;8410;52.532;13.336;2023-04-05T04:20:13;101968.81;;;4.51;66.10
16595;BME280;8410;52.532;13.336;2023-04-05T04:22:40;101961.25;;;4.37;66.23
16595;BME280;8410;52.532;13.336;2023-04-05T04:25:09;101963.28;;;4.58;66.10
16595;BME280;8410;52.532;13.336;2023-04-05T04:27:41;101960.56;;;4.40;65.70
16595;BME280;8410;52.532;13.336;2023-04-05T04:30:10;101949.97;;;4.63;65.41
16595;BME280;8410;52.532;13.336;2023-04-05T04:32:39;101961.22;;;4.67;65.66
16595;BME280;8410;52.532;13.336;2023-04-05T04:35:23;101953.78;;;5.18;64.31
16595;BME280;8410;52.532;13.336;2023-04-05T04:37:53;101958.13;;;5.19;64.22
16595;BME280;8410;52.532;13.336;2023-04-05T04:40:23;101959.97;;;4.90;64.13
16595;BME280;8410;52.532;13.336;2023-04-05T04:42:51;101966.53;;;4.55;65.40
16595;BME280;8410;52.532;13.336;2023-04-05T04:45:19;101965.13;;;4.46;65.84
16595;BME280;8410;52.532;13.336;2023-04-05T04:47:48;101958.03;;;4.86;64.98
16595;BME280;8410;52.532;13.336;2023-04-05T04:50:18;101966.53;;;4.55;65.94
16595;BME280;8410;52.532;13.336;2023-04-05T04:52:47;101965.13;;;4.60;65.36
16595;BME280;8410;52.532;13.336;2023-04-05T04:55:15;101968.81;;;4.66;65.27
16595;BME280;8410;52.532;13.336;2023-04-05T04:57:42;101961.88;;;4.48;66.78
16595;BME280;8410;52.532;13.336;2023-04-05T05:00:10;101959.84;;;4.57;66.62
16595;BME280;8410;52.532;13.336;2023-04-05T05:02:41;101964.16;;;4.58;65.59
16595;BME280;8410;52.532;13.336;2023-04-05T05:05:10;101962.66;;;4.32;66.67
16595;BME280;8410;52.532;13.336;2023-04-05T05:07:38;101965.31;;;4.34;66.95
16595;BME280;8410;52.532;13.336;2023-04-05T05:10:09;101965.13;;;4.60;66.05
16595;BME280;8410;52.532;13.336;2023-04-05T05:12:37;101961.13;;;4.80;65.39
16595;BME280;8410;52.532;13.336;2023-04-05T05:15:05;101959.66;;;4.54;65.93
16595;BME280;8410;52.532;13.336;2023-04-05T05:17:33;101962.41;;;4.89;64.77
16595;BME280;8410;52.532;13.336;2023-04-05T05:20:01;101958.59;;;4.66;64.82
16595;BME280;8410;52.532;13.336;2023-04-05T05:22:30;101953.72;;;5.16;64.59
16595;BME280;8410;52.532;13.336;2023-04-05T05:24:58;101955.94;;;5.26;63.62
16595;BME280;8410;52.532;13.336;2023-04-05T05:27:27;101959.97;;;4.90;63.60
16595;BME280;8410;52.532;13.336;2023-04-05T05:29:54;101962.59;;;4.92;64.30
16595;BME280;8410;52.532;13.336;2023-04-05T05:32:22;101963.91;;;4.39;65.75
16595;BME280;8410;52.532;13.336;2023-04-05T05:34:49;101963.25;;;4.73;64.91
16595;BME280;8410;52.532;13.336;2023-04-05T05:37:17;101962.09;;;4.68;65.24
16595;BME280;8410;52.532;13.336;2023-04-05T05:39:44;101956.59;;;4.91;64.75
16595;BME280;8410;52.532;13.336;2023-04-05T05:42:12;101960.97;;;5.08;64.83
16595;BME280;8410;52.532;13.336;2023-04-05T05:44:41;101956.81;;;4.79;64.31
16595;BME280;8410;52.532;13.336;2023-04-05T05:47:08;101952.59;;;4.80;65.39
16595;BME280;8410;52.532;13.336;2023-04-05T05:49:35;101956.84;;;4.35;65.33
16595;BME280;8410;52.532;13.336;2023-04-05T05:52:03;101948.34;;;4.49;65.93
16595;BME280;8410;52.532;13.336;2023-04-05T05:54:31;101958.34;;;4.16;65.88
16595;BME280;8410;52.532;13.336;2023-04-05T05:56:58;101954.72;;;3.98;66.49
16595;BME280;8410;52.532;13.336;2023-04-05T05:59:27;101953.34;;;4.62;65.67
16595;BME280;8410;52.532;13.336;2023-04-05T06:01:56;101951.84;;;4.97;64.83
16595;BME280;8410;52.532;13.336;2023-04-05T06:04:23;101944.41;;;5.17;64.75
16595;BME280;8410;52.532;13.336;2023-04-05T06:06:51;101943.41;;;4.83;65.02
16595;BME280;8410;52.532;13.336;2023-04-05T06:09:19;101947.94;;;5.04;64.72
16595;BME280;8410;52.532;13.336;2023-04-05T06:11:50;101944.56;;;5.36;63.48
16595;BME280;8410;52.532;13.336;2023-04-05T06:14:23;101948.09;;;5.55;62.77
16595;BME280;8410;52.532;13.336;2023-04-05T06:16:50;101944.00;;;5.58;62.83
16595;BME280;8410;52.532;13.336;2023-04-05T06:19:19;101939.06;;;5.94;62.27
16595;BME280;8410;52.532;13.336;2023-04-05T06:21:47;101956.84;;;5.11;63.44
16595;BME280;8410;52.532;13.336;2023-04-05T06:24:14;101956.44;;;4.88;64.18
16595;BME280;8410;52.532;13.336;2023-04-05T06:26:41;101950.94;;;4.97;64.39
16595;BME280;8410;52.532;13.336;2023-04-05T06:29:09;101942.38;;;4.80;64.56
16595;BME280;8410;52.532;13.336;2023-04-05T06:31:37;101942.06;;;4.74;65.43
16595;BME280;8410;52.532;13.336;2023-04-05T06:34:06;101953.81;;;5.34;63.84
16595;BME280;8410;52.532;13.336;2023-04-05T06:36:35;101953.72;;;4.09;66.85
16595;BME280;8410;52.532;13.336;2023-04-05T06:39:02;101952.56;;;4.95;65.39
16595;BME280;8410;52.532;13.336;2023-04-05T06:41:30;101955.34;;;4.99;64.63
16595;BME280;8410;52.532;13.336;2023-04-05T06:43:57;101957.72;;;3.91;67.34
16595;BME280;8410;52.532;13.336;2023-04-05T06:46:25;101969.78;;;4.08;67.97
16595;BME280;8410;52.532;13.336;2023-04-05T06:48:52;101956.84;;;4.35;67.17
16595;BME280;8410;52.532;13.336;2023-04-05T06:51:20;101952.78;;;5.30;65.55
16595;BME280;8410;52.532;13.336;2023-04-05T06:53:49;101944.00;;;6.42;62.87
16595;BME280;8410;52.532;13.336;2023-04-05T06:56:17;101939.16;;;6.48;61.22
16595;BME280;8410;52.532;13.336;2023-04-05T06:58:44;101936.00;;;6.17;61.63
16595;BME280;8410;52.532;13.336;2023-04-05T07:01:12;101944.69;;;6.21;62.73
16595;BME280;8410;52.532;13.336;2023-04-05T07:03:39;101950.31;;;5.65;63.14
16595;BME280;8410;52.532;13.336;2023-04-05T07:06:07;101947.06;;;5.67;63.29
16595;BME280;8410;52.532;13.336;2023-04-05T07:08:35;101935.63;;;6.10;63.83
16595;BME280;8410;52.532;13.336;2023-04-05T07:11:04;101943.25;;;6.62;61.66
16595;BME280;8410;52.532;13.336;2023-04-05T07:13:32;101927.88;;;6.44;61.38
16595;BME280;8410;52.532;13.336;2023-04-05T07:16:00;101932.28;;;6.82;60.92
16595;BME280;8410;52.532;13.336;2023-04-05T07:18:28;101926.25;;;7.00;60.78
16595;BME280;8410;52.532;13.336;2023-04-05T07:20:57;101918.06;;;7.65;58.49
16595;BME280;8410;52.532;13.336;2023-04-05T07:23:29;101915.81;;;7.33;59.02
16595;BME280;8410;52.532;13.336;2023-04-05T07:25:59;101918.06;;;7.65;58.34
16595;BME280;8410;52.532;13.336;2023-04-05T07:28:31;101915.03;;;7.74;60.07
16595;BME280;8410;52.532;13.336;2023-04-05T07:31:01;101914.81;;;7.89;58.20
16595;BME280;8410;52.532;13.336;2023-04-05T07:33:29;101913.34;;;7.55;59.22
16595;BME280;8410;52.532;13.336;2023-04-05T07:35:56;101911.06;;;8.23;56.97
16595;BME280;8410;52.532;13.336;2023-04-05T07:38:25;101924.28;;;7.32;59.83
16595;BME280;8410;52.532;13.336;2023-04-05T07:40:52;101925.88;;;7.10;59.26
16595;BME280;8410;52.532;13.336;2023-04-05T07:43:20;101935.44;;;6.59;61.80
16595;BME280;8410;52.532;13.336;2023-04-05T07:45:48;101931.94;;;6.05;63.75
16595;BME280;8410;52.532;13.336;2023-04-05T07:48:18;101933.88;;;5.76;64.33
16595;BME280;8410;52.532;13.336;2023-04-05T07:50:45;101957.00;;;5.30;66.05
16595;BME280;8410;52.532;13.336;2023-04-05T07:53:13;101945.09;;;4.83;67.11
16595;BME280;8410;52.532;13.336;2023-04-05T07:55:41;101939.75;;;5.09;67.12
16595;BME280;8410;52.532;13.336;2023-04-05T07:58:09;101942.47;;;5.13;66.56
16595;BME280;8410;52.532;13.336;2023-04-05T08:00:37;101930.50;;;6.28;65.00
16595;BME280;8410;52.532;13.336;2023-04-05T08:03:06;101928.75;;;6.27;65.46
16595;BME280;8410;52.532;13.336;2023-04-05T08:05:34;101927.91;;;6.62;64.24
16595;BME280;8410;52.532;13.336;2023-04-05T08:08:01;101927.75;;;6.59;63.99
16595;BME280;8410;52.532;13.336;2023-04-05T08:10:29;101924.16;;;6.73;63.40
16595;BME280;8410;52.532;13.336;2023-04-05T08:12:56;101923.63;;;7.36;62.83
16595;BME280;8410;52.532;13.336;2023-04-05T08:15:24;101918.31;;;8.12;61.44
16595;BME280;8410;52.532;13.336;2023-04-05T08:17:51;101924.34;;;7.14;59.97
16595;BME280;8410;52.532;13.336;2023-04-05T08:20:20;101922.34;;;7.08;63.05
16595;BME280;8410;52.532;13.336;2023-04-05T08:22:47;101915.72;;;7.50;63.06
16595;BME280;8410;52.532;13.336;2023-04-05T08:25:15;101912.06;;;8.05;60.94
16595;BME280;8410;52.532;13.336;2023-04-05T08:27:42;101919.44;;;7.57;61.40
16595;BME280;8410;52.532;13.336;2023-04-05T08:30:10;101920.38;;;7.40;62.70
16595;BME280;8410;52.532;13.336;2023-04-05T08:32:38;101913.06;;;8.09;59.63
16595;BME280;8410;52.532;13.336;2023-04-05T08:35:06;101909.13;;;8.38;60.31
16595;BME280;8410;52.532;13.336;2023-04-05T08:37:35;101906.91;;;8.68;59.72
16595;BME280;8410;52.532;13.336;2023-04-05T08:40:03;101910.16;;;8.21;59.39
16595;BME280;8410;52.532;13.336;2023-04-05T08:42:35;101913.06;;;8.30;59.78
16595;BME280;8410;52.532;13.336;2023-04-05T08:45:08;101909.31;;;8.64;57.98
16595;BME280;8410;52.532;13.336;2023-04-05T08:47:36;101904.97;;;8.40;59.00
16595;BME280;8410;52.532;13.336;2023-04-05T08:50:05;101903.19;;;9.27;58.23
16595;BME280;8410;52.532;13.336;2023-04-05T08:52:32;101904.06;;;9.05;58.63
16595;BME280;8410;52.532;13.336;2023-04-05T08:55:05;101915.69;;;8.73;58.29
16595;BME280;8410;52.532;13.336;2023-04-05T08:57:36;101907.72;;;8.90;58.88
16595;BME280;8410;52.532;13.336;2023-04-05T09:00:07;101891.38;;;9.82;56.99
16595;BME280;8410;52.532;13.336;2023-04-05T09:02:36;101899.31;;;9.40;56.34
16595;BME280;8410;52.532;13.336;2023-04-05T09:05:08;101905.31;;;8.07;59.83
16595;BME280;8410;52.532;13.336;2023-04-05T09:07:37;101909.09;;;7.56;61.31
16595;BME280;8410;52.532;13.336;2023-04-05T09:10:07;101906.81;;;7.03;63.31
16595;BME280;8410;52.532;13.336;2023-04-05T09:12:35;101899.22;;;8.91;60.51
16595;BME280;8410;52.532;13.336;2023-04-05T09:15:04;101907.66;;;7.82;60.14
16595;BME280;8410;52.532;13.336;2023-04-05T09:17:32;101897.44;;;7.62;61.63
16595;BME280;8410;52.532;13.336;2023-04-05T09:20:00;101886.56;;;9.19;58.62
16595;BME280;8410;52.532;13.336;2023-04-05T09:22:28;101894.75;;;8.85;57.61
16595;BME280;8410;52.532;13.336;2023-04-05T09:24:56;101894.69;;;8.61;58.99
16595;BME280;8410;52.532;13.336;2023-04-05T09:27:24;101889.13;;;9.42;57.99
16595;BME280;8410;52.532;13.336;2023-04-05T09:29:52;101905.88;;;7.21;60.06
16595;BME280;8410;52.532;13.336;2023-04-05T09:32:24;101894.03;;;7.83;59.03
16595;BME280;8410;52.532;13.336;2023-04-05T09:34:53;101890.13;;;7.71;60.20
16595;BME280;8410;52.532;13.336;2023-04-05T09:37:21;101895.78;;;7.84;59.54
16595;BME280;8410;52.532;13.336;2023-04-05T09:39:50;101886.53;;;8.95;58.13
16595;BME280;8410;52.532;13.336;2023-04-05T09:42:33;101874.63;;;9.69;55.88
16595;BME280;8410;52.532;13.336;2023-04-05T09:45:10;101868.94;;;10.29;53.92
16595;BME280;8410;52.532;13.336;2023-04-05T09:47:38;101878.63;;;9.60;55.36
16595;BME280;8410;52.532;13.336;2023-04-05T09:50:17;101895.41;;;6.79;61.51
16595;BME280;8410;52.532;13.336;2023-04-05T09:52:45;101890.78;;;7.87;59.77
16595;BME280;8410;52.532;13.336;2023-04-05T09:55:17;101890.25;;;7.74;60.10
16595;BME280;8410;52.532;13.336;2023-04-05T09:57:53;101886.94;;;7.37;59.81
16595;BME280;8410;52.532;13.336;2023-04-05T10:00:21;101881.63;;;7.51;60.31
16595;BME280;8410;52.532;13.336;2023-04-05T10:02:52;101876.63;;;9.04;57.46
16595;BME280;8410;52.532;13.336;2023-04-05T10:05:23;101868.09;;;10.05;54.70
16595;BME280;8410;52.532;13.336;2023-04-05T10:07:51;101863.97;;;10.35;53.71
16595;BME280;8410;52.532;13.336;2023-04-05T10:10:20;101860.50;;;11.21;51.99
16595;BME280;8410;52.532;13.336;2023-04-05T10:12:49;101854.00;;;11.35;51.03
16595;BME280;8410;52.532;13.336;2023-04-05T10:15:18;101870.44;;;9.71;54.30
16595;BME280;8410;52.532;13.336;2023-04-05T10:17:47;101861.03;;;10.52;52.66
16595;BME280;8410;52.532;13.336;2023-04-05T10:20:17;101862.13;;;10.31;53.30
16595;BME280;8410;52.532;13.336;2023-04-05T10:22:59;101862.25;;;10.34;52.03
16595;BME280;8410;52.532;13.336;2023-04-05T10:25:34;101875.28;;;8.92;55.71
16595;BME280;8410;52.532;13.336;2023-04-05T10:28:09;101876.75;;;8.63;55.70
16595;BME280;8410;52.532;13.336;2023-04-05T10:30:42;101872.72;;;7.64;58.29
16595;BME280;8410;52.532;13.336;2023-04-05T10:33:15;101882.53;;;7.73;58.95
16595;BME280;8410;52.532;13.336;2023-04-05T10:35:56;101875.16;;;8.02;58.13
16595;BME280;8410;52.532;13.336;2023-04-05T10:38:27;101880.28;;;7.03;59.97
16595;BME280;8410;52.532;13.336;2023-04-05T10:40:56;101884.34;;;7.56;59.83
16595;BME280;8410;52.532;13.336;2023-04-05T10:43:30;101885.63;;;7.07;60.43
16595;BME280;8410;52.532;13.336;2023-04-05T10:46:01;101878.09;;;7.90;60.25
16595;BME280;8410;52.532;13.336;2023-04-05T10:48:36;101867.22;;;7.55;59.24
16595;BME280;8410;52.532;13.336;2023-04-05T10:51:06;101876.34;;;7.89;60.45
16595;BME280;8410;52.532;13.336;2023-04-05T10:53:36;101865.56;;;7.77;58.75
16595;BME280;8410;52.532;13.336;2023-04-05T10:56:04;101863.78;;;7.95;58.21
16595;BME280;8410;52.532;13.336;2023-04-05T10:58:34;101867.53;;;8.45;58.24
16595;BME280;8410;52.532;13.336;2023-04-05T11:01:03;101874.91;;;8.16;57.90
16595;BME280;8410;52.532;13.336;2023-04-05T11:03:43;101865.81;;;9.13;55.58
16595;BME280;8410;52.532;13.336;2023-04-05T11:06:23;101851.59;;;9.23;54.98
16595;BME280;8410;52.532;13.336;2023-04-05T11:08:53;101867.59;;;8.92;55.04
16595;BME280;8410;52.532;13.336;2023-04-05T11:11:22;101870.44;;;8.54;56.41
16595;BME280;8410;52.532;13.336;2023-04-05T11:13:52;101859.72;;;8.65;56.28
16595;BME280;8410;52.532;13.336;2023-04-05T11:16:22;101851.84;;;8.60;55.55
16595;BME280;8410;52.532;13.336;2023-04-05T11:18:51;101857.34;;;8.69;55.93
16595;BME280;8410;52.532;13.336;2023-04-05T11:21:21;101854.50;;;7.78;55.97
16595;BME280;8410;52.532;13.336;2023-04-05T11:24:00;101852.94;;;8.44;57.75
16595;BME280;8410;52.532;13.336;2023-04-05T11:26:33;101835.97;;;9.92;54.55
16595;BME280;8410;52.532;13.336;2023-04-05T11:29:45;101838.38;;;9.87;53.67
16595;BME280;8410;52.532;13.336;2023-04-05T11:32:16;101844.09;;;9.79;53.07
16595;BME280;8410;52.532;13.336;2023-04-05T11:34:44;101835.81;;;9.62;54.23
16595;BME280;8410;52.532;13.336;2023-04-05T11:37:14;101844.16;;;9.55;53.55
16595;BME280;8410;52.532;13.336;2023-04-05T11:39:41;101858.66;;;8.59;55.98
16595;BME280;8410;52.532;13.336;2023-04-05T11:42:10;101852.91;;;8.43;57.82
16595;BME280;8410;52.532;13.336;2023-04-05T11:44:44;101855.75;;;8.50;57.16
16595;BME280;8410;52.532;13.336;2023-04-05T11:47:12;101857.19;;;8.23;58.12
16595;BME280;8410;52.532;13.336;2023-04-05T11:49:41;101839.22;;;9.61;55.91
16595;BME280;8410;52.532;13.336;2023-04-05T11:52:10;101827.81;;;10.90;52.66
16595;BME280;8410;52.532;13.336;2023-04-05T11:54:38;101833.66;;;10.00;52.70
16595;BME280;8410;52.532;13.336;2023-04-05T11:57:12;101844.97;;;8.38;57.14
16595;BME280;8410;52.532;13.336;2023-04-05T11:59:41;101840.56;;;9.01;54.54
16595;BME280;8410;52.532;13.336;2023-04-05T12:02:09;101846.56;;;8.13;56.17
16595;BME280;8410;52.532;13.336;2023-04-05T12:04:37;101843.56;;;8.67;56.09
16595;BME280;8410;52.532;13.336;2023-04-05T12:07:12;101851.13;;;7.58;59.68
16595;BME280;8410;52.532;13.336;2023-04-05T12:10:00;101859.03;;;7.04;62.75
16595;BME280;8410;52.532;13.336;2023-04-05T12:12:32;101858.75;;;7.17;61.29
16595;BME280;8410;52.532;13.336;2023-04-05T12:15:00;101855.13;;;7.12;60.28
16595;BME280;8410;52.532;13.336;2023-04-05T12:17:40;101857.81;;;6.96;62.46
16595;BME280;8410;52.532;13.336;2023-04-05T12:20:10;101855.38;;;7.18;62.08
16595;BME280;8410;52.532;13.336;2023-04-05T12:22:40;101848.63;;;7.59;61.17
16595;BME280;8410;52.532;13.336;2023-04-05T12:25:09;101835.59;;;9.56;57.80
16595;BME280;8410;52.532;13.336;2023-04-05T12:27:37;101828.91;;;10.39;54.30
16595;BME280;8410;52.532;13.336;2023-04-05T12:30:07;101827.31;;;9.90;54.40
16595;BME280;8410;52.532;13.336;2023-04-05T12:32:39;101819.25;;;10.32;52.65
16595;BME280;8410;52.532;13.336;2023-04-05T12:35:09;101824.25;;;9.49;53.65
16595;BME280;8410;52.532;13.336;2023-04-05T12:37:39;101834.22;;;8.92;55.41
16595;BME280;8410;52.532;13.336;2023-04-05T12:40:08;101836.75;;;8.03;59.43
16595;BME280;8410;52.532;13.336;2023-04-05T12:42:37;101819.16;;;8.12;59.85
16595;BME280;8410;52.532;13.336;2023-04-05T12:45:08;101826.91;;;7.51;60.87
16595;BME280;8410;52.532;13.336;2023-04-05T12:47:48;101827.19;;;7.57;59.84
16595;BME280;8410;52.532;13.336;2023-04-05T12:50:17;101817.97;;;8.25;59.63
16595;BME280;8410;52.532;13.336;2023-04-05T12:52:54;101822.97;;;8.66;59.21
16595;BME280;8410;52.532;13.336;2023-04-05T12:55:22;101822.84;;;8.63;58.23
16595;BME280;8410;52.532;13.336;2023-04-05T12:57:51;101815.56;;;8.51;58.52
16595;BME280;8410;52.532;13.336;2023-04-05T13:00:20;101811.09;;;8.45;57.66
16595;BME280;8410;52.532;13.336;2023-04-05T13:02:51;101810.88;;;8.18;58.27
16595;BME280;8410;52.532;13.336;2023-04-05T13:05:20;101822.03;;;7.99;58.59
16595;BME280;8410;52.532;13.336;2023-04-05T13:07:48;101801.31;;;8.81;56.99
16595;BME280;8410;52.532;13.336;2023-04-05T13:10:18;101794.72;;;10.16;55.01
16595;BME280;8410;52.532;13.336;2023-04-05T13:12:46;101795.38;;;9.32;53.81